sensor_id;sensor_type;location;lat;lon;timestamp;P1;durP1;ratioP1;P2;durP2;ratioP2
77222;SDS011;66218;48.928;9.140;2023-04-24T00:00:11;1.05;;;0.30;;
77222;SDS011;66218;48.928;9.140;2023-04-24T00:02:39;1.48;;;0.45;;
77222;SDS011;66218;48.928;9.140;2023-04-24T00:05:06;0.40;;;0.30;;
77222;SDS011;66218;48.928;9.140;2023-04-24T00:07:32;2.42;;;0.30;;
77222;SDS011;66218;48.928;9.140;2023-04-24T00:09:58;1.40;;;0.30;;
77222;SDS011;66218;48.928;9.140;2023-04-24T00:12:23;0.40;;;0.22;;
77222;SDS011;66218;48.928;9.140;2023-04-24T00:14:49;0.22;;;0.17;;
77222;SDS011;66218;48.928;9.140;2023-04-24T00:17:15;0.32;;;0.20;;
77222;SDS011;66218;48.928;9.140;2023-04-24T00:19:40;0.90;;;0.20;;
77222;SDS011;66218;48.928;9.140;2023-04-24T00:22:05;3.45;;;0.30;;
77222;SDS011;66218;48.928;9.140;2023-04-24T00:24:31;0.68;;;0.38;;
77222;SDS011;66218;48.928;9.140;2023-04-24T00:26:56;0.20;;;0.20;;
77222;SDS011;66218;48.928;9.140;2023-04-24T00:29:22;1.15;;;0.40;;
77222;SDS011;66218;48.928;9.140;2023-04-24T00:31:47;0.47;;;0.28;;
77222;SDS011;66218;48.928;9.140;2023-04-24T00:34:12;0.35;;;0.28;;
77222;SDS011;66218;48.928;9.140;2023-04-24T00:36:38;0.38;;;0.22;;
77222;SDS011;66218;48.928;9.140;2023-04-24T00:39:03;2.97;;;0.40;;
77222;SDS011;66218;48.928;9.140;2023-04-24T00:41:29;1.13;;;0.70;;
77222;SDS011;66218;48.928;9.140;2023-04-24T00:43:55;0.50;;;0.20;;
77222;SDS011;66218;48.928;9.140;2023-04-24T00:46:20;0.32;;;0.20;;
77222;SDS011;66218;48.928;9.140;2023-04-24T00:48:46;0.13;;;0.13;;
77222;SDS011;66218;48.928;9.140;2023-04-24T00:51:11;0.77;;;0.20;;
77222;SDS011;66218;48.928;9.140;2023-04-24T00:53:37;0.08;;;0.08;;
77222;SDS011;66218;48.928;9.140;2023-04-24T00:56:02;1.42;;;0.55;;
77222;SDS011;66218;48.928;9.140;2023-04-24T00:58:29;0.60;;;0.50;;
77222;SDS011;66218;48.928;9.140;2023-04-24T01:03:22;0.70;;;0.20;;
77222;SDS011;66218;48.928;9.140;2023-04-24T01:05:51;2.40;;;0.63;;
77222;SDS011;66218;48.928;9.140;2023-04-24T01:08:17;3.58;;;0.30;;
77222;SDS011;66218;48.928;9.140;2023-04-24T01:10:42;1.95;;;0.52;;
77222;SDS011;66218;48.928;9.140;2023-04-24T01:13:10;0.93;;;0.40;;
77222;SDS011;66218;48.928;9.140;2023-04-24T01:15:35;0.30;;;0.20;;
77222;SDS011;66218;48.928;9.140;2023-04-24T01:18:01;0.40;;;0.30;;
77222;SDS011;66218;48.928;9.140;2023-04-24T01:20:26;2.55;;;0.10;;
77222;SDS011;66218;48.928;9.140;2023-04-24T01:22:53;1.60;;;0.47;;
77222;SDS011;66218;48.928;9.140;2023-04-24T01:25:19;0.88;;;0.43;;
77222;SDS011;66218;48.928;9.140;2023-04-24T01:27:45;0.13;;;0.13;;
77222;SDS011;66218;48.928;9.140;2023-04-24T01:30:11;0.15;;;0.15;;
77222;SDS011;66218;48.928;9.140;2023-04-24T01:32:37;0.25;;;0.13;;
77222;SDS011;66218;48.928;9.140;2023-04-24T01:35:03;0.65;;;0.30;;
77222;SDS011;66218;48.928;9.140;2023-04-24T01:37:29;0.32;;;0.20;;
77222;SDS011;66218;48.928;9.140;2023-04-24T01:39:54;0.10;;;0.10;;
77222;SDS011;66218;48.928;9.140;2023-04-24T01:42:20;0.22;;;0.20;;
77222;SDS011;66218;48.928;9.140;2023-04-24T01:44:45;0.20;;;0.10;;
77222;SDS011;66218;48.928;9.140;2023-04-24T01:47:11;0.73;;;0.15;;
77222;SDS011;66218;48.928;9.140;2023-04-24T01:49:40;0.10;;;0.10;;
77222;SDS011;66218;48.928;9.140;2023-04-24T01:52:05;0.40;;;0.10;;
77222;SDS011;66218;48.928;9.140;2023-04-24T01:54:30;0.08;;;0.08;;
77222;SDS011;66218;48.928;9.140;2023-04-24T01:56:56;0.30;;;0.30;;
77222;SDS011;66218;48.928;9.140;2023-04-24T01:59:21;2.10;;;0.57;;
77222;SDS011;66218;48.928;9.140;2023-04-24T02:01:48;0.35;;;0.20;;
77222;SDS011;66218;48.928;9.140;2023-04-24T02:04:13;0.13;;;0.03;;
77222;SDS011;66218;48.928;9.140;2023-04-24T02:06:40;0.45;;;0.10;;
77222;SDS011;66218;48.928;9.140;2023-04-24T02:09:05;2.38;;;1.02;;
77222;SDS011;66218;48.928;9.140;2023-04-24T02:11:31;0.50;;;0.30;;
77222;SDS011;66218;48.928;9.140;2023-04-24T02:13:56;0.85;;;0.30;;
77222;SDS011;66218;48.928;9.140;2023-04-24T02:16:21;0.77;;;0.22;;
77222;SDS011;66218;48.928;9.140;2023-04-24T02:18:47;0.20;;;0.17;;
77222;SDS011;66218;48.928;9.140;2023-04-24T02:21:12;1.38;;;0.45;;
77222;SDS011;66218;48.928;9.140;2023-04-24T02:23:37;1.45;;;0.17;;
77222;SDS011;66218;48.928;9.140;2023-04-24T02:26:03;2.20;;;0.30;;
77222;SDS011;66218;48.928;9.140;2023-04-24T02:28:28;0.15;;;0.10;;
77222;SDS011;66218;48.928;9.140;2023-04-24T02:30:53;2.28;;;0.17;;
77222;SDS011;66218;48.928;9.140;2023-04-24T02:33:19;0.75;;;0.15;;
77222;SDS011;66218;48.928;9.140;2023-04-24T02:35:44;0.73;;;0.20;;
77222;SDS011;66218;48.928;9.140;2023-04-24T02:38:10;0.32;;;0.20;;
77222;SDS011;66218;48.928;9.140;2023-04-24T02:40:35;0.15;;;0.13;;
77222;SDS011;66218;48.928;9.140;2023-04-24T02:43:00;0.93;;;0.28;;
77222;SDS011;66218;48.928;9.140;2023-04-24T02:45:26;0.60;;;0.30;;
77222;SDS011;66218;48.928;9.140;2023-04-24T02:47:51;0.10;;;0.10;;
77222;SDS011;66218;48.928;9.140;2023-04-24T02:50:16;0.50;;;0.20;;
77222;SDS011;66218;48.928;9.140;2023-04-24T02:52:41;0.77;;;0.32;;
77222;SDS011;66218;48.928;9.140;2023-04-24T02:55:07;3.42;;;0.30;;
77222;SDS011;66218;48.928;9.140;2023-04-24T02:57:33;0.77;;;0.43;;
77222;SDS011;66218;48.928;9.140;2023-04-24T02:59:58;1.60;;;0.17;;
77222;SDS011;66218;48.928;9.140;2023-04-24T03:02:23;1.10;;;0.35;;
77222;SDS011;66218;48.928;9.140;2023-04-24T03:04:49;0.38;;;0.20;;
77222;SDS011;66218;48.928;9.140;2023-04-24T03:07:14;1.30;;;0.17;;
77222;SDS011;66218;48.928;9.140;2023-04-24T03:09:40;0.20;;;0.17;;
77222;SDS011;66218;48.928;9.140;2023-04-24T03:12:05;1.55;;;0.63;;
77222;SDS011;66218;48.928;9.140;2023-04-24T03:14:31;1.45;;;0.55;;
77222;SDS011;66218;48.928;9.140;2023-04-24T03:16:56;0.60;;;0.40;;
77222;SDS011;66218;48.928;9.140;2023-04-24T03:19:22;3.33;;;0.20;;
77222;SDS011;66218;48.928;9.140;2023-04-24T03:21:47;2.33;;;0.28;;
77222;SDS011;66218;48.928;9.140;2023-04-24T03:24:13;4.70;;;0.30;;
77222;SDS011;66218;48.928;9.140;2023-04-24T03:26:38;0.35;;;0.15;;
77222;SDS011;66218;48.928;9.140;2023-04-24T03:29:04;0.40;;;0.22;;
77222;SDS011;66218;48.928;9.140;2023-04-24T03:31:29;1.05;;;0.30;;
77222;SDS011;66218;48.928;9.140;2023-04-24T03:33:54;0.57;;;0.17;;
77222;SDS011;66218;48.928;9.140;2023-04-24T03:36:20;1.63;;;0.70;;
77222;SDS011;66218;48.928;9.140;2023-04-24T03:38:45;0.43;;;0.20;;
77222;SDS011;66218;48.928;9.140;2023-04-24T03:41:10;0.38;;;0.15;;
77222;SDS011;66218;48.928;9.140;2023-04-24T03:43:36;0.40;;;0.30;;
77222;SDS011;66218;48.928;9.140;2023-04-24T03:46:02;0.52;;;0.10;;
77222;SDS011;66218;48.928;9.140;2023-04-24T03:48:27;0.73;;;0.25;;
77222;SDS011;66218;48.928;9.140;2023-04-24T03:50:53;3.83;;;0.40;;
77222;SDS011;66218;48.928;9.140;2023-04-24T03:53:18;0.20;;;0.10;;
77222;SDS011;66218;48.928;9.140;2023-04-24T03:55:44;0.85;;;0.25;;
77222;SDS011;66218;48.928;9.140;2023-04-24T03:58:10;0.82;;;0.35;;
77222;SDS011;66218;48.928;9.140;2023-04-24T04:00:36;1.65;;;0.65;;
77222;SDS011;66218;48.928;9.140;2023-04-24T04:03:02;0.57;;;0.35;;
77222;SDS011;66218;48.928;9.140;2023-04-24T04:05:28;0.10;;;0.10;;
77222;SDS011;66218;48.928;9.140;2023-04-24T04:07:53;0.75;;;0.22;;
77222;SDS011;66218;48.928;9.140;2023-04-24T04:10:19;0.73;;;0.30;;
77222;SDS011;66218;48.928;9.140;2023-04-24T04:12:44;0.55;;;0.20;;
77222;SDS011;66218;48.928;9.140;2023-04-24T04:15:10;1.45;;;0.47;;
77222;SDS011;66218;48.928;9.140;2023-04-24T04:17:35;1.90;;;0.28;;
77222;SDS011;66218;48.928;9.140;2023-04-24T04:20:00;0.43;;;0.28;;
77222;SDS011;66218;48.928;9.140;2023-04-24T04:22:26;0.10;;;0.10;;
77222;SDS011;66218;48.928;9.140;2023-04-24T04:24:52;0.25;;;0.13;;
77222;SDS011;66218;48.928;9.140;2023-04-24T04:27:17;0.98;;;0.20;;
77222;SDS011;66218;48.928;9.140;2023-04-24T04:29:43;0.43;;;0.25;;
77222;SDS011;66218;48.928;9.140;2023-04-24T04:32:09;0.55;;;0.22;;
77222;SDS011;66218;48.928;9.140;2023-04-24T04:34:37;0.75;;;0.63;;
77222;SDS011;66218;48.928;9.140;2023-04-24T04:37:04;0.45;;;0.13;;
77222;SDS011;66218;48.928;9.140;2023-04-24T04:39:30;0.47;;;0.30;;
77222;SDS011;66218;48.928;9.140;2023-04-24T04:41:56;0.95;;;0.30;;
77222;SDS011;66218;48.928;9.140;2023-04-24T04:44:21;2.47;;;0.40;;
77222;SDS011;66218;48.928;9.140;2023-04-24T04:46:50;0.50;;;0.30;;
77222;SDS011;66218;48.928;9.140;2023-04-24T04:49:18;2.30;;;0.47;;
77222;SDS011;66218;48.928;9.140;2023-04-24T04:51:43;4.43;;;0.60;;
77222;SDS011;66218;48.928;9.140;2023-04-24T04:54:11;0.47;;;0.32;;
77222;SDS011;66218;48.928;9.140;2023-04-24T04:56:37;0.30;;;0.10;;
77222;SDS011;66218;48.928;9.140;2023-04-24T04:59:02;0.95;;;0.70;;
77222;SDS011;66218;48.928;9.140;2023-04-24T05:01:28;0.20;;;0.20;;
77222;SDS011;66218;48.928;9.140;2023-04-24T05:03:55;0.50;;;0.40;;
77222;SDS011;66218;48.928;9.140;2023-04-24T05:06:26;5.57;;;0.45;;
77222;SDS011;66218;48.928;9.140;2023-04-24T05:08:52;0.73;;;0.45;;
77222;SDS011;66218;48.928;9.140;2023-04-24T05:11:21;1.80;;;0.40;;
77222;SDS011;66218;48.928;9.140;2023-04-24T05:13:47;0.77;;;0.45;;
77222;SDS011;66218;48.928;9.140;2023-04-24T05:16:14;1.52;;;0.47;;
77222;SDS011;66218;48.928;9.140;2023-04-24T05:18:40;0.85;;;0.68;;
77222;SDS011;66218;48.928;9.140;2023-04-24T05:21:08;1.98;;;0.60;;
77222;SDS011;66218;48.928;9.140;2023-04-24T05:23:33;3.25;;;1.15;;
77222;SDS011;66218;48.928;9.140;2023-04-24T05:25:59;2.00;;;1.00;;
77222;SDS011;66218;48.928;9.140;2023-04-24T05:28:24;3.10;;;0.60;;
77222;SDS011;66218;48.928;9.140;2023-04-24T05:30:55;2.35;;;0.60;;
77222;SDS011;66218;48.928;9.140;2023-04-24T05:33:21;3.25;;;0.95;;
77222;SDS011;66218;48.928;9.140;2023-04-24T05:35:47;1.42;;;0.73;;
77222;SDS011;66218;48.928;9.140;2023-04-24T05:38:15;1.98;;;0.70;;
77222;SDS011;66218;48.928;9.140;2023-04-24T05:40:44;1.80;;;0.82;;
77222;SDS011;66218;48.928;9.140;2023-04-24T05:43:12;0.55;;;0.25;;
77222;SDS011;66218;48.928;9.140;2023-04-24T05:45:40;2.42;;;0.85;;
77222;SDS011;66218;48.928;9.140;2023-04-24T05:48:05;2.17;;;0.68;;
77222;SDS011;66218;48.928;9.140;2023-04-24T05:50:33;1.90;;;0.90;;
77222;SDS011;66218;48.928;9.140;2023-04-24T05:52:59;0.93;;;0.73;;
77222;SDS011;66218;48.928;9.140;2023-04-24T05:55:26;3.85;;;1.05;;
77222;SDS011;66218;48.928;9.140;2023-04-24T05:57:55;1.90;;;0.70;;
77222;SDS011;66218;48.928;9.140;2023-04-24T06:00:21;1.17;;;0.65;;
77222;SDS011;66218;48.928;9.140;2023-04-24T06:02:46;1.02;;;0.70;;
77222;SDS011;66218;48.928;9.140;2023-04-24T06:05:12;0.93;;;0.60;;
77222;SDS011;66218;48.928;9.140;2023-04-24T06:07:37;0.43;;;0.25;;
77222;SDS011;66218;48.928;9.140;2023-04-24T06:10:02;2.65;;;0.93;;
77222;SDS011;66218;48.928;9.140;2023-04-24T06:12:28;0.90;;;0.40;;
77222;SDS011;66218;48.928;9.140;2023-04-24T06:14:53;1.35;;;0.47;;
77222;SDS011;66218;48.928;9.140;2023-04-24T06:17:20;2.13;;;1.00;;
77222;SDS011;66218;48.928;9.140;2023-04-24T06:19:46;0.80;;;0.55;;
77222;SDS011;66218;48.928;9.140;2023-04-24T06:22:11;2.55;;;0.90;;
77222;SDS011;66218;48.928;9.140;2023-04-24T06:24:36;1.45;;;0.63;;
77222;SDS011;66218;48.928;9.140;2023-04-24T06:27:02;1.58;;;0.45;;
77222;SDS011;66218;48.928;9.140;2023-04-24T06:29:27;2.67;;;0.70;;
77222;SDS011;66218;48.928;9.140;2023-04-24T06:31:55;1.17;;;0.77;;
77222;SDS011;66218;48.928;9.140;2023-04-24T06:34:21;1.15;;;0.60;;
77222;SDS011;66218;48.928;9.140;2023-04-24T06:36:51;2.58;;;0.93;;
77222;SDS011;66218;48.928;9.140;2023-04-24T06:39:19;1.90;;;1.02;;
77222;SDS011;66218;48.928;9.140;2023-04-24T06:41:48;2.88;;;0.63;;
77222;SDS011;66218;48.928;9.140;2023-04-24T06:44:13;1.30;;;0.70;;
77222;SDS011;66218;48.928;9.140;2023-04-24T06:46:39;2.28;;;0.80;;
77222;SDS011;66218;48.928;9.140;2023-04-24T06:49:07;0.90;;;0.60;;
77222;SDS011;66218;48.928;9.140;2023-04-24T06:51:33;1.45;;;0.80;;
77222;SDS011;66218;48.928;9.140;2023-04-24T06:54:01;0.90;;;0.40;;
77222;SDS011;66218;48.928;9.140;2023-04-24T06:56:26;1.58;;;1.05;;
77222;SDS011;66218;48.928;9.140;2023-04-24T06:58:53;4.90;;;1.10;;
77222;SDS011;66218;48.928;9.140;2023-04-24T07:01:19;1.58;;;0.80;;
77222;SDS011;66218;48.928;9.140;2023-04-24T07:03:47;1.70;;;0.70;;
77222;SDS011;66218;48.928;9.140;2023-04-24T07:06:12;2.50;;;0.85;;
77222;SDS011;66218;48.928;9.140;2023-04-24T07:08:37;2.13;;;0.65;;
77222;SDS011;66218;48.928;9.140;2023-04-24T07:11:06;1.20;;;0.63;;
77222;SDS011;66218;48.928;9.140;2023-04-24T07:13:35;1.58;;;1.35;;
77222;SDS011;66218;48.928;9.140;2023-04-24T07:16:00;2.33;;;1.38;;
77222;SDS011;66218;48.928;9.140;2023-04-24T07:18:28;3.35;;;0.80;;
77222;SDS011;66218;48.928;9.140;2023-04-24T07:20:53;2.70;;;0.85;;
77222;SDS011;66218;48.928;9.140;2023-04-24T07:23:19;2.92;;;0.65;;
77222;SDS011;66218;48.928;9.140;2023-04-24T07:25:45;0.75;;;0.45;;
77222;SDS011;66218;48.928;9.140;2023-04-24T07:28:10;1.23;;;0.85;;
77222;SDS011;66218;48.928;9.140;2023-04-24T07:30:35;4.88;;;0.80;;
77222;SDS011;66218;48.928;9.140;2023-04-24T07:33:01;1.30;;;0.52;;
77222;SDS011;66218;48.928;9.140;2023-04-24T07:35:26;3.40;;;0.73;;
77222;SDS011;66218;48.928;9.140;2023-04-24T07:37:54;1.23;;;0.70;;
77222;SDS011;66218;48.928;9.140;2023-04-24T07:40:20;1.30;;;0.50;;
77222;SDS011;66218;48.928;9.140;2023-04-24T07:42:47;2.10;;;0.75;;
77222;SDS011;66218;48.928;9.140;2023-04-24T07:45:13;2.50;;;0.77;;
77222;SDS011;66218;48.928;9.140;2023-04-24T07:47:39;0.45;;;0.32;;
77222;SDS011;66218;48.928;9.140;2023-04-24T07:50:08;1.20;;;0.63;;
77222;SDS011;66218;48.928;9.140;2023-04-24T07:52:34;1.00;;;0.35;;
77222;SDS011;66218;48.928;9.140;2023-04-24T07:54:59;1.77;;;0.88;;
77222;SDS011;66218;48.928;9.140;2023-04-24T07:57:25;1.70;;;0.70;;
77222;SDS011;66218;48.928;9.140;2023-04-24T07:59:51;1.25;;;0.70;;
77222;SDS011;66218;48.928;9.140;2023-04-24T08:02:18;2.50;;;1.08;;
77222;SDS011;66218;48.928;9.140;2023-04-24T08:04:43;1.42;;;0.80;;
77222;SDS011;66218;48.928;9.140;2023-04-24T08:07:11;1.52;;;0.75;;
77222;SDS011;66218;48.928;9.140;2023-04-24T08:09:37;1.20;;;0.45;;
77222;SDS011;66218;48.928;9.140;2023-04-24T08:12:05;0.75;;;0.25;;
77222;SDS011;66218;48.928;9.140;2023-04-24T08:14:31;1.52;;;0.55;;
77222;SDS011;66218;48.928;9.140;2023-04-24T08:16:56;1.15;;;0.60;;
77222;SDS011;66218;48.928;9.140;2023-04-24T08:19:21;1.35;;;0.60;;
77222;SDS011;66218;48.928;9.140;2023-04-24T08:21:47;1.10;;;0.43;;
77222;SDS011;66218;48.928;9.140;2023-04-24T08:24:15;0.50;;;0.40;;
77222;SDS011;66218;48.928;9.140;2023-04-24T08:26:40;1.65;;;0.95;;
77222;SDS011;66218;48.928;9.140;2023-04-24T08:29:09;0.88;;;0.60;;
77222;SDS011;66218;48.928;9.140;2023-04-24T08:31:37;1.90;;;0.50;;
77222;SDS011;66218;48.928;9.140;2023-04-24T08:34:05;1.15;;;0.60;;
77222;SDS011;66218;48.928;9.140;2023-04-24T08:36:31;1.27;;;0.70;;
77222;SDS011;66218;48.928;9.140;2023-04-24T08:38:56;2.28;;;0.68;;
77222;SDS011;66218;48.928;9.140;2023-04-24T08:41:25;1.17;;;0.43;;
77222;SDS011;66218;48.928;9.140;2023-04-24T08:43:52;1.48;;;0.38;;
77222;SDS011;66218;48.928;9.140;2023-04-24T08:46:18;1.45;;;0.40;;
77222;SDS011;66218;48.928;9.140;2023-04-24T08:48:45;0.57;;;0.30;;
77222;SDS011;66218;48.928;9.140;2023-04-24T08:51:13;1.65;;;0.68;;
77222;SDS011;66218;48.928;9.140;2023-04-24T08:53:41;0.65;;;0.45;;
77222;SDS011;66218;48.928;9.140;2023-04-24T08:56:06;1.38;;;0.57;;
77222;SDS011;66218;48.928;9.140;2023-04-24T08:58:32;1.30;;;0.47;;
77222;SDS011;66218;48.928;9.140;2023-04-24T09:00:58;0.70;;;0.50;;
77222;SDS011;66218;48.928;9.140;2023-04-24T09:03:24;0.22;;;0.13;;
77222;SDS011;66218;48.928;9.140;2023-04-24T09:05:51;1.40;;;0.65;;
77222;SDS011;66218;48.928;9.140;2023-04-24T09:08:18;2.08;;;0.80;;
77222;SDS011;66218;48.928;9.140;2023-04-24T09:10:43;1.33;;;0.35;;
77222;SDS011;66218;48.928;9.140;2023-04-24T09:13:09;2.95;;;0.52;;
77222;SDS011;66218;48.928;9.140;2023-04-24T09:15:38;1.30;;;0.20;;
77222;SDS011;66218;48.928;9.140;2023-04-24T09:18:03;1.45;;;0.50;;
77222;SDS011;66218;48.928;9.140;2023-04-24T09:20:33;0.68;;;0.40;;
77222;SDS011;66218;48.928;9.140;2023-04-24T09:23:20;0.80;;;0.68;;
77222;SDS011;66218;48.928;9.140;2023-04-24T09:25:46;2.42;;;0.98;;
77222;SDS011;66218;48.928;9.140;2023-04-24T09:28:20;1.40;;;0.52;;
77222;SDS011;66218;48.928;9.140;2023-04-24T09:31:01;0.75;;;0.40;;
77222;SDS011;66218;48.928;9.140;2023-04-24T09:34:03;0.45;;;0.20;;
77222;SDS011;66218;48.928;9.140;2023-04-24T09:39:02;0.35;;;0.20;;
77222;SDS011;66218;48.928;9.140;2023-04-24T09:41:33;1.15;;;0.32;;
77222;SDS011;66218;48.928;9.140;2023-04-24T09:44:11;0.38;;;0.20;;
77222;SDS011;66218;48.928;9.140;2023-04-24T09:46:41;0.20;;;0.20;;
77222;SDS011;66218;48.928;9.140;2023-04-24T09:49:08;0.55;;;0.32;;
77222;SDS011;66218;48.928;9.140;2023-04-24T09:51:35;2.55;;;0.63;;
77222;SDS011;66218;48.928;9.140;2023-04-24T09:54:02;1.55;;;0.40;;
77222;SDS011;66218;48.928;9.140;2023-04-24T09:56:48;0.60;;;0.40;;
77222;SDS011;66218;48.928;9.140;2023-04-24T09:59:17;0.52;;;0.38;;
77222;SDS011;66218;48.928;9.140;2023-04-24T10:01:43;2.45;;;0.50;;
77222;SDS011;66218;48.928;9.140;2023-04-24T10:04:23;1.17;;;0.73;;
77222;SDS011;66218;48.928;9.140;2023-04-24T10:06:53;1.02;;;0.50;;
77222;SDS011;66218;48.928;9.140;2023-04-24T10:09:23;1.00;;;0.38;;
77222;SDS011;66218;48.928;9.140;2023-04-24T10:11:51;0.55;;;0.32;;
77222;SDS011;66218;48.928;9.140;2023-04-24T10:14:22;1.17;;;0.30;;
77222;SDS011;66218;48.928;9.140;2023-04-24T10:16:49;2.72;;;0.63;;
77222;SDS011;66218;48.928;9.140;2023-04-24T10:19:18;0.82;;;0.47;;
77222;SDS011;66218;48.928;9.140;2023-04-24T10:21:43;0.65;;;0.57;;
77222;SDS011;66218;48.928;9.140;2023-04-24T10:24:13;0.73;;;0.45;;
77222;SDS011;66218;48.928;9.140;2023-04-24T10:26:43;0.93;;;0.40;;
77222;SDS011;66218;48.928;9.140;2023-04-24T10:29:12;0.90;;;0.50;;
77222;SDS011;66218;48.928;9.140;2023-04-24T10:31:40;1.52;;;0.50;;
77222;SDS011;66218;48.928;9.140;2023-04-24T10:34:05;1.23;;;0.45;;
77222;SDS011;66218;48.928;9.140;2023-04-24T10:36:32;0.75;;;0.43;;
77222;SDS011;66218;48.928;9.140;2023-04-24T10:39:00;1.65;;;0.95;;
77222;SDS011;66218;48.928;9.140;2023-04-24T10:41:29;1.73;;;0.52;;
77222;SDS011;66218;48.928;9.140;2023-04-24T10:44:12;1.15;;;0.45;;
77222;SDS011;66218;48.928;9.140;2023-04-24T10:46:39;1.45;;;0.47;;
77222;SDS011;66218;48.928;9.140;2023-04-24T10:49:08;1.30;;;0.68;;
77222;SDS011;66218;48.928;9.140;2023-04-24T10:51:49;1.45;;;0.80;;
77222;SDS011;66218;48.928;9.140;2023-04-24T10:54:22;0.68;;;0.47;;
77222;SDS011;66218;48.928;9.140;2023-04-24T10:56:50;1.05;;;0.40;;
77222;SDS011;66218;48.928;9.140;2023-04-24T10:59:26;0.68;;;0.47;;
77222;SDS011;66218;48.928;9.140;2023-04-24T11:01:53;0.80;;;0.50;;
77222;SDS011;66218;48.928;9.140;2023-04-24T11:04:29;0.47;;;0.35;;
77222;SDS011;66218;48.928;9.140;2023-04-24T11:07:00;1.48;;;0.60;;
77222;SDS011;66218;48.928;9.140;2023-04-24T11:09:27;3.13;;;0.50;;
77222;SDS011;66218;48.928;9.140;2023-04-24T11:12:04;1.95;;;0.70;;
77222;SDS011;66218;48.928;9.140;2023-04-24T11:20:00;2.10;;;0.70;;
77222;SDS011;66218;48.928;9.140;2023-04-24T11:22:26;1.27;;;0.73;;
77222;SDS011;66218;48.928;9.140;2023-04-24T11:24:54;2.25;;;0.60;;
77222;SDS011;66218;48.928;9.140;2023-04-24T11:27:21;1.35;;;0.73;;
77222;SDS011;66218;48.928;9.140;2023-04-24T11:35:06;1.65;;;0.75;;
77222;SDS011;66218;48.928;9.140;2023-04-24T11:40:00;2.10;;;0.80;;
77222;SDS011;66218;48.928;9.140;2023-04-24T11:42:26;1.13;;;0.80;;
77222;SDS011;66218;48.928;9.140;2023-04-24T11:44:52;1.30;;;0.65;;
77222;SDS011;66218;48.928;9.140;2023-04-24T11:47:20;1.02;;;0.50;;
77222;SDS011;66218;48.928;9.140;2023-04-24T11:49:52;0.82;;;0.65;;
77222;SDS011;66218;48.928;9.140;2023-04-24T11:52:17;2.85;;;0.90;;
77222;SDS011;66218;48.928;9.140;2023-04-24T11:54:47;1.02;;;0.63;;
77222;SDS011;66218;48.928;9.140;2023-04-24T11:57:14;1.05;;;0.55;;
77222;SDS011;66218;48.928;9.140;2023-04-24T11:59:39;0.98;;;0.50;;
77222;SDS011;66218;48.928;9.140;2023-04-24T12:02:04;1.15;;;0.63;;
77222;SDS011;66218;48.928;9.140;2023-04-24T12:04:38;1.55;;;0.90;;
77222;SDS011;66218;48.928;9.140;2023-04-24T12:07:07;2.42;;;0.98;;
77222;SDS011;66218;48.928;9.140;2023-04-24T12:09:42;2.40;;;1.08;;
77222;SDS011;66218;48.928;9.140;2023-04-24T12:12:07;3.90;;;0.90;;
77222;SDS011;66218;48.928;9.140;2023-04-24T12:14:41;1.10;;;0.80;;
77222;SDS011;66218;48.928;9.140;2023-04-24T12:17:30;1.27;;;0.73;;
77222;SDS011;66218;48.928;9.140;2023-04-24T12:20:01;1.42;;;0.60;;
77222;SDS011;66218;48.928;9.140;2023-04-24T12:22:42;3.05;;;1.00;;
77222;SDS011;66218;48.928;9.140;2023-04-24T12:25:27;1.30;;;0.90;;
77222;SDS011;66218;48.928;9.140;2023-04-24T12:27:55;1.38;;;0.38;;
77222;SDS011;66218;48.928;9.140;2023-04-24T12:30:48;1.13;;;0.43;;
77222;SDS011;66218;48.928;9.140;2023-04-24T12:33:17;0.45;;;0.30;;
77222;SDS011;66218;48.928;9.140;2023-04-24T12:35:44;1.02;;;0.50;;
77222;SDS011;66218;48.928;9.140;2023-04-24T12:38:11;0.38;;;0.20;;
77222;SDS011;66218;48.928;9.140;2023-04-24T12:40:39;0.47;;;0.30;;
77222;SDS011;66218;48.928;9.140;2023-04-24T12:43:15;1.85;;;0.85;;
77222;SDS011;66218;48.928;9.140;2023-04-24T12:45:45;2.13;;;1.00;;
77222;SDS011;66218;48.928;9.140;2023-04-24T12:48:11;2.17;;;1.10;;
77222;SDS011;66218;48.928;9.140;2023-04-24T12:50:37;2.00;;;0.75;;
77222;SDS011;66218;48.928;9.140;2023-04-24T12:53:03;1.67;;;0.75;;
77222;SDS011;66218;48.928;9.140;2023-04-24T12:55:28;2.40;;;1.20;;
77222;SDS011;66218;48.928;9.140;2023-04-24T12:57:53;2.47;;;0.93;;
77222;SDS011;66218;48.928;9.140;2023-04-24T13:02:45;3.33;;;0.77;;
77222;SDS011;66218;48.928;9.140;2023-04-24T13:05:10;1.90;;;0.80;;
77222;SDS011;66218;48.928;9.140;2023-04-24T13:07:38;2.25;;;1.05;;
77222;SDS011;66218;48.928;9.140;2023-04-24T13:10:04;0.95;;;0.40;;
77222;SDS011;66218;48.928;9.140;2023-04-24T13:12:30;3.55;;;1.10;;
77222;SDS011;66218;48.928;9.140;2023-04-24T13:14:56;2.15;;;0.95;;
77222;SDS011;66218;48.928;9.140;2023-04-24T13:17:21;1.80;;;0.70;;
77222;SDS011;66218;48.928;9.140;2023-04-24T13:19:48;1.52;;;0.73;;
77222;SDS011;66218;48.928;9.140;2023-04-24T13:22:15;5.63;;;1.17;;
77222;SDS011;66218;48.928;9.140;2023-04-24T13:24:40;2.10;;;0.85;;
77222;SDS011;66218;48.928;9.140;2023-04-24T13:27:06;1.08;;;0.65;;
77222;SDS011;66218;48.928;9.140;2023-04-24T13:29:31;1.63;;;1.00;;
77222;SDS011;66218;48.928;9.140;2023-04-24T13:31:57;2.50;;;0.90;;
77222;SDS011;66218;48.928;9.140;2023-04-24T13:34:23;1.33;;;0.88;;
77222;SDS011;66218;48.928;9.140;2023-04-24T13:39:15;2.53;;;1.15;;
77222;SDS011;66218;48.928;9.140;2023-04-24T13:41:40;2.60;;;1.00;;
77222;SDS011;66218;48.928;9.140;2023-04-24T13:44:06;3.45;;;1.05;;
77222;SDS011;66218;48.928;9.140;2023-04-24T13:46:31;1.00;;;0.70;;
77222;SDS011;66218;48.928;9.140;2023-04-24T13:48:57;2.28;;;1.00;;
77222;SDS011;66218;48.928;9.140;2023-04-24T13:51:23;0.95;;;0.85;;
77222;SDS011;66218;48.928;9.140;2023-04-24T13:53:50;1.67;;;0.60;;
77222;SDS011;66218;48.928;9.140;2023-04-24T13:56:16;1.52;;;1.08;;
77222;SDS011;66218;48.928;9.140;2023-04-24T13:58:41;2.35;;;1.10;;
77222;SDS011;66218;48.928;9.140;2023-04-24T14:01:06;2.30;;;0.68;;
77222;SDS011;66218;48.928;9.140;2023-04-24T14:03:33;1.75;;;0.88;;
77222;SDS011;66218;48.928;9.140;2023-04-24T14:06:01;1.98;;;0.70;;
77222;SDS011;66218;48.928;9.140;2023-04-24T14:08:26;1.85;;;0.80;;
77222;SDS011;66218;48.928;9.140;2023-04-24T14:10:52;1.65;;;1.02;;
77222;SDS011;66218;48.928;9.140;2023-04-24T14:13:17;2.08;;;1.10;;
77222;SDS011;66218;48.928;9.140;2023-04-24T14:15:43;1.55;;;1.00;;
77222;SDS011;66218;48.928;9.140;2023-04-24T14:18:08;1.60;;;0.82;;
77222;SDS011;66218;48.928;9.140;2023-04-24T14:20:33;1.45;;;0.88;;
77222;SDS011;66218;48.928;9.140;2023-04-24T14:22:59;1.70;;;0.50;;
77222;SDS011;66218;48.928;9.140;2023-04-24T14:25:24;2.83;;;1.20;;
77222;SDS011;66218;48.928;9.140;2023-04-24T14:27:50;1.48;;;0.60;;
77222;SDS011;66218;48.928;9.140;2023-04-24T14:30:16;1.50;;;0.85;;
77222;SDS011;66218;48.928;9.140;2023-04-24T14:32:41;2.13;;;1.00;;
77222;SDS011;66218;48.928;9.140;2023-04-24T14:35:07;1.25;;;0.80;;
77222;SDS011;66218;48.928;9.140;2023-04-24T14:37:32;4.82;;;1.05;;
77222;SDS011;66218;48.928;9.140;2023-04-24T14:39:58;3.80;;;1.00;;
77222;SDS011;66218;48.928;9.140;2023-04-24T14:42:23;2.35;;;0.70;;
77222;SDS011;66218;48.928;9.140;2023-04-24T14:44:49;5.82;;;1.00;;
77222;SDS011;66218;48.928;9.140;2023-04-24T14:47:15;1.65;;;0.88;;
77222;SDS011;66218;48.928;9.140;2023-04-24T14:49:42;2.10;;;0.65;;
77222;SDS011;66218;48.928;9.140;2023-04-24T14:52:08;3.50;;;0.95;;
77222;SDS011;66218;48.928;9.140;2023-04-24T14:54:34;2.45;;;0.70;;
77222;SDS011;66218;48.928;9.140;2023-04-24T14:57:14;1.42;;;0.70;;
77222;SDS011;66218;48.928;9.140;2023-04-24T15:00:00;1.35;;;0.70;;
77222;SDS011;66218;48.928;9.140;2023-04-24T15:02:26;1.50;;;0.75;;
77222;SDS011;66218;48.928;9.140;2023-04-24T15:04:52;1.10;;;0.60;;
77222;SDS011;66218;48.928;9.140;2023-04-24T15:07:17;0.88;;;0.60;;
77222;SDS011;66218;48.928;9.140;2023-04-24T15:09:42;1.42;;;0.75;;